Time;durP1;ratioP1;P1;durP2;ratioP2;P2;SDS_P1;SDS_P2;PMS_P1;PMS_P2;Temp;Humidity;BMP_temperature;BMP_pressure;BME280_temperature;BME280_humidity;BME280_pressure;Samples;Min_cycle;Max_cycle;Signal;HPM_P1;HPM_P2
2023/10/21 00:00:23;;;;;;;2.58;1.50;;;;;;;;;;5035031;28;20115;-80
2023/10/21 00:02:53;;;;;;;6.25;1.77;;;;;;;;;;5036749;28;20107;-80
2023/10/21 00:05:21;;;;;;;4.22;1.48;;;;;;;;;;5036666;28;20107;-79
2023/10/21 00:07:48;;;;;;;2.78;1.90;;;;;;;;;;5036675;28;20042;-81
2023/10/21 00:10:15;;;;;;;2.53;1.83;;;;;;;;;;5035252;28;20176;-80
2023/10/21 00:12:44;;;;;;;2.90;1.73;;;;;;;;;;5034823;28;20046;-79
2023/10/21 00:15:11;;;;;;;3.08;1.92;;;;;;;;;;5034946;28;20096;-79
2023/10/21 00:17:38;;;;;;;2.47;2.22;;;;;;;;;;5033783;28;20128;-79
2023/10/21 00:20:06;;;;;;;1.60;1.48;;;;;;;;;;5031231;28;20042;-79
2023/10/21 00:22:35;;;;;;;4.82;2.75;;;;;;;;;;5036574;28;20046;-79
2023/10/21 00:25:04;;;;;;;4.13;2.30;;;;;;;;;;5035310;28;20045;-79
2023/10/21 00:27:31;;;;;;;3.65;2.30;;;;;;;;;;5035402;28;20514;-79
2023/10/21 00:29:58;;;;;;;2.90;2.63;;;;;;;;;;5035667;28;20053;-80
2023/10/21 00:32:26;;;;;;;4.25;3.13;;;;;;;;;;5036872;28;20060;-79
2023/10/21 00:34:53;;;;;;;5.60;3.40;;;;;;;;;;5036165;28;20508;-80
2023/10/21 00:37:21;;;;;;;2.53;2.33;;;;;;;;;;5035208;28;20049;-80
2023/10/21 00:39:48;;;;;;;3.60;2.97;;;;;;;;;;5034836;28;20045;-80
2023/10/21 00:42:15;;;;;;;5.75;3.33;;;;;;;;;;5034770;28;20053;-80
2023/10/21 00:44:42;;;;;;;4.90;3.30;;;;;;;;;;5036228;28;20049;-80
2023/10/21 00:47:10;;;;;;;6.03;3.80;;;;;;;;;;5034874;28;20550;-80
2023/10/21 00:49:37;;;;;;;4.68;3.72;;;;;;;;;;5035726;28;20103;-80
2023/10/21 00:52:05;;;;;;;7.47;4.88;;;;;;;;;;5035645;28;20054;-80
2023/10/21 00:54:32;;;;;;;10.85;6.15;;;;;;;;;;5035647;28;20053;-79
2023/10/21 00:56:59;;;;;;;5.97;4.25;;;;;;;;;;5035381;28;20558;-79
2023/10/21 00:59:27;;;;;;;11.25;4.32;;;;;;;;;;5034353;28;20052;-79
2023/10/21 01:01:54;;;;;;;7.72;4.78;;;;;;;;;;5034271;28;20049;-79
2023/10/21 01:04:22;;;;;;;7.63;4.53;;;;;;;;;;5034012;28;20496;-80
2023/10/21 01:06:49;;;;;;;7.75;5.20;;;;;;;;;;5027393;28;20416;-80
2023/10/21 01:09:17;;;;;;;6.03;5.50;;;;;;;;;;5033612;28;20049;-79
2023/10/21 01:11:44;;;;;;;10.10;6.57;;;;;;;;;;5035037;28;20115;-79
2023/10/21 01:14:11;;;;;;;7.70;5.85;;;;;;;;;;5034205;28;20054;-79
2023/10/21 01:16:38;;;;;;;8.55;5.63;;;;;;;;;;5034843;28;20488;-80
2023/10/21 01:19:07;;;;;;;9.75;4.68;;;;;;;;;;5035071;28;20110;-80
2023/10/21 01:21:34;;;;;;;5.28;4.25;;;;;;;;;;5033830;28;20115;-79
2023/10/21 01:24:01;;;;;;;5.40;4.22;;;;;;;;;;5034772;28;20056;-80
2023/10/21 01:26:29;;;;;;;4.82;3.72;;;;;;;;;;5035011;28;20488;-79
2023/10/21 01:28:56;;;;;;;8.35;3.47;;;;;;;;;;5034939;28;20099;-79
2023/10/21 01:31:23;;;;;;;4.70;3.47;;;;;;;;;;5033303;28;20103;-79
2023/10/21 01:33:50;;;;;;;6.15;4.20;;;;;;;;;;5034778;28;20471;-79
2023/10/21 01:36:18;;;;;;;12.00;4.07;;;;;;;;;;5033196;28;20053;-79
2023/10/21 01:38:45;;;;;;;8.07;4.10;;;;;;;;;;5033554;28;20049;-79
2023/10/21 01:41:13;;;;;;;5.25;3.65;;;;;;;;;;5028204;28;20046;-78
2023/10/21 01:43:40;;;;;;;4.13;3.60;;;;;;;;;;5033139;28;20056;-78
2023/10/21 01:46:07;;;;;;;7.20;3.08;;;;;;;;;;5033607;28;20079;-78
2023/10/21 01:48:34;;;;;;;6.10;3.83;;;;;;;;;;5034377;28;20049;-78
2023/10/21 01:51:05;;;;;;;6.00;3.70;;;;;;;;;;5033065;28;20051;-78
2023/10/21 01:53:32;;;;;;;4.78;3.20;;;;;;;;;;5034097;28;20057;-77
2023/10/21 01:56:00;;;;;;;4.43;3.10;;;;;;;;;;5034269;28;20053;-79
2023/10/21 01:58:29;;;;;;;3.63;3.28;;;;;;;;;;5033278;28;20045;-79
2023/10/21 02:00:56;;;;;;;4.50;3.67;;;;;;;;;;5033006;28;20045;-78
2023/10/21 02:03:25;;;;;;;7.28;4.07;;;;;;;;;;5032690;28;20049;-79
2023/10/21 02:05:52;;;;;;;4.40;3.55;;;;;;;;;;5033849;28;20049;-78
2023/10/21 02:08:20;;;;;;;5.93;4.30;;;;;;;;;;5032527;28;20500;-79
2023/10/21 02:10:47;;;;;;;6.35;3.67;;;;;;;;;;5055212;22;20050;-83
2023/10/21 02:13:14;;;;;;;3.90;3.58;;;;;;;;;;5033902;28;20056;-82
2023/10/21 02:15:41;;;;;;;6.43;3.65;;;;;;;;;;5014985;28;20128;-81
2023/10/21 02:18:09;;;;;;;5.45;3.83;;;;;;;;;;5012736;28;20050;-80
2023/10/21 02:20:37;;;;;;;8.88;3.63;;;;;;;;;;5013973;28;20049;-82
2023/10/21 02:23:04;;;;;;;9.27;3.35;;;;;;;;;;5013333;28;20053;-82
2023/10/21 02:25:33;;;;;;;8.60;4.25;;;;;;;;;;5012809;28;20615;-82
2023/10/21 02:28:03;;;;;;;3.75;3.40;;;;;;;;;;5013966;28;20064;-81
2023/10/21 02:30:31;;;;;;;6.43;3.28;;;;;;;;;;5012748;28;20517;-82
2023/10/21 02:32:58;;;;;;;4.75;3.50;;;;;;;;;;5012565;28;20053;-82
2023/10/21 02:35:25;;;;;;;3.53;3.00;;;;;;;;;;5013100;28;20052;-82
2023/10/21 02:37:52;;;;;;;6.65;3.30;;;;;;;;;;5013873;28;20045;-82
2023/10/21 02:40:20;;;;;;;3.67;2.80;;;;;;;;;;5012681;28;20057;-83
2023/10/21 02:42:47;;;;;;;3.13;2.60;;;;;;;;;;5012355;28;20054;-82
2023/10/21 02:45:15;;;;;;;4.40;3.08;;;;;;;;;;5012325;28;20042;-81
2023/10/21 02:47:42;;;;;;;2.67;2.50;;;;;;;;;;5013451;28;20057;-82
2023/10/21 02:50:10;;;;;;;3.13;2.85;;;;;;;;;;5012419;28;20424;-82
2023/10/21 02:52:40;;;;;;;4.20;2.83;;;;;;;;;;5012579;28;20057;-82
2023/10/21 02:55:07;;;;;;;2.90;2.60;;;;;;;;;;5012261;28;20050;-82
2023/10/21 02:57:35;;;;;;;2.42;2.22;;;;;;;;;;5018448;28;20046;-82
2023/10/21 03:00:05;;;;;;;3.30;2.80;;;;;;;;;;5026724;28;20085;-81
2023/10/21 03:02:33;;;;;;;3.65;2.30;;;;;;;;;;5022179;28;20042;-83
2023/10/21 03:05:00;;;;;;;4.38;2.75;;;;;;;;;;5018763;28;20054;-83
2023/10/21 03:07:27;;;;;;;4.07;2.28;;;;;;;;;;5017948;28;20049;-81
2023/10/21 03:09:54;;;;;;;8.30;2.97;;;;;;;;;;5024633;28;20050;-83
2023/10/21 03:12:22;;;;;;;3.05;2.85;;;;;;;;;;5025739;28;20084;-81
2023/10/21 03:14:49;;;;;;;9.15;3.45;;;;;;;;;;5020142;28;20058;-83
2023/10/21 03:17:16;;;;;;;4.85;3.13;;;;;;;;;;5016771;28;20048;-83
2023/10/21 03:19:43;;;;;;;5.70;3.63;;;;;;;;;;5016747;28;20061;-83
2023/10/21 03:22:11;;;;;;;4.57;3.10;;;;;;;;;;5014933;28;20112;-82
2023/10/21 03:24:38;;;;;;;3.00;2.70;;;;;;;;;;5015462;28;20046;-83
2023/10/21 03:27:06;;;;;;;4.65;3.15;;;;;;;;;;5014795;28;20053;-83
2023/10/21 03:29:33;;;;;;;7.82;3.85;;;;;;;;;;5016051;28;20053;-83
2023/10/21 03:32:01;;;;;;;4.75;3.72;;;;;;;;;;5016853;28;20085;-83
2023/10/21 03:34:28;;;;;;;6.03;4.45;;;;;;;;;;5018401;28;20515;-82
2023/10/21 03:36:55;;;;;;;6.32;4.50;;;;;;;;;;5017741;28;20046;-83
2023/10/21 03:39:22;;;;;;;6.60;3.60;;;;;;;;;;5018479;28;20049;-81
2023/10/21 03:41:50;;;;;;;4.85;4.05;;;;;;;;;;5018896;28;20081;-83
2023/10/21 03:44:17;;;;;;;8.73;5.25;;;;;;;;;;5017664;28;20570;-83
2023/10/21 03:46:45;;;;;;;6.18;4.65;;;;;;;;;;5018315;28;20108;-82
2023/10/21 03:49:12;;;;;;;10.85;4.95;;;;;;;;;;5018297;28;20050;-83
2023/10/21 03:51:39;;;;;;;12.40;4.25;;;;;;;;;;5017995;28;20045;-83
2023/10/21 03:54:07;;;;;;;8.35;4.68;;;;;;;;;;5018675;28;20056;-83
2023/10/21 03:56:34;;;;;;;9.80;4.07;;;;;;;;;;5017450;28;20513;-82
2023/10/21 03:59:01;;;;;;;7.57;4.82;;;;;;;;;;5018449;28;20053;-82
2023/10/21 04:01:28;;;;;;;12.82;9.75;;;;;;;;;;5018217;28;20049;-82
2023/10/21 04:03:56;;;;;;;8.48;5.93;;;;;;;;;;5017924;28;20393;-82
2023/10/21 04:06:23;;;;;;;6.90;4.90;;;;;;;;;;5016756;28;20053;-83
2023/10/21 04:08:50;;;;;;;4.32;3.92;;;;;;;;;;5017805;28;20073;-83
2023/10/21 04:11:18;;;;;;;5.13;3.80;;;;;;;;;;5017723;28;20500;-83
2023/10/21 04:13:45;;;;;;;4.60;4.10;;;;;;;;;;5016676;28;20092;-82
2023/10/21 04:16:13;;;;;;;10.57;4.85;;;;;;;;;;5019026;28;20563;-82
2023/10/21 04:18:40;;;;;;;7.15;4.45;;;;;;;;;;5018120;28;20049;-82
2023/10/21 04:21:08;;;;;;;4.10;3.40;;;;;;;;;;5016106;28;20053;-82
2023/10/21 04:23:36;;;;;;;8.10;4.22;;;;;;;;;;5018496;28;20042;-83
2023/10/21 04:26:05;;;;;;;4.80;3.63;;;;;;;;;;5011720;28;20065;-82
2023/10/21 04:28:33;;;;;;;4.03;3.60;;;;;;;;;;5014981;28;20054;-83
2023/10/21 04:31:00;;;;;;;4.95;3.90;;;;;;;;;;5015887;28;20053;-81
2023/10/21 04:33:28;;;;;;;7.13;4.07;;;;;;;;;;5016086;28;20050;-83
2023/10/21 04:35:56;;;;;;;10.85;4.13;;;;;;;;;;5015291;28;20049;-82
2023/10/21 04:38:23;;;;;;;6.65;3.78;;;;;;;;;;5016701;28;20052;-82
2023/10/21 04:40:50;;;;;;;5.45;3.80;;;;;;;;;;5016107;28;20100;-82
2023/10/21 04:43:18;;;;;;;6.22;2.45;;;;;;;;;;5015030;28;20500;-82
2023/10/21 04:45:45;;;;;;;17.08;2.80;;;;;;;;;;5015426;28;20046;-82
2023/10/21 04:48:12;;;;;;;9.20;2.50;;;;;;;;;;5015776;28;20053;-82
2023/10/21 04:50:39;;;;;;;12.00;1.60;;;;;;;;;;5017724;28;20424;-82
2023/10/21 04:53:07;;;;;;;155.13;15.45;;;;;;;;;;5015938;28;20053;-82
2023/10/21 04:55:34;;;;;;;36.78;3.80;;;;;;;;;;5017324;28;20104;-82
2023/10/21 04:58:01;;;;;;;17.17;2.08;;;;;;;;;;5016855;28;20042;-81
2023/10/21 05:00:28;;;;;;;13.18;1.42;;;;;;;;;;5014787;28;20492;-80
2023/10/21 05:02:56;;;;;;;8.88;1.60;;;;;;;;;;5016067;28;20046;-83
2023/10/21 05:05:24;;;;;;;6.85;1.10;;;;;;;;;;5014755;28;20076;-81
2023/10/21 05:07:51;;;;;;;5.43;0.77;;;;;;;;;;5014712;28;20073;-81
2023/10/21 05:10:18;;;;;;;1.83;0.60;;;;;;;;;;5015388;28;20054;-81
2023/10/21 05:12:46;;;;;;;1.67;0.50;;;;;;;;;;5014841;28;20050;-81
2023/10/21 05:15:13;;;;;;;2.00;0.45;;;;;;;;;;5014560;28;20290;-82
2023/10/21 05:17:40;;;;;;;1.23;0.60;;;;;;;;;;5013821;28;20049;-80
2023/10/21 05:20:08;;;;;;;0.38;0.30;;;;;;;;;;5013947;28;20556;-81
2023/10/21 05:22:35;;;;;;;2.03;0.55;;;;;;;;;;5013928;28;20467;-81
2023/10/21 05:25:03;;;;;;;0.35;0.15;;;;;;;;;;5015105;28;20085;-82
2023/10/21 05:27:30;;;;;;;0.43;0.20;;;;;;;;;;5013659;28;20559;-82
2023/10/21 05:29:58;;;;;;;0.30;0.30;;;;;;;;;;5013663;28;20050;-82
2023/10/21 05:32:25;;;;;;;0.43;0.20;;;;;;;;;;5014720;28;20054;-81
2023/10/21 05:34:52;;;;;;;0.20;0.20;;;;;;;;;;5007225;28;20080;-80
2023/10/21 05:37:20;;;;;;;0.30;0.20;;;;;;;;;;5015616;28;20092;-81
2023/10/21 05:39:47;;;;;;;1.23;0.20;;;;;;;;;;5015192;28;20062;-82
2023/10/21 05:42:15;;;;;;;0.20;0.20;;;;;;;;;;5013345;28;20103;-82
2023/10/21 05:44:42;;;;;;;0.10;0.10;;;;;;;;;;5013622;28;20060;-80
2023/10/21 05:47:15;;;;;;;;;;;;;;;;;;5014267;28;20412;-82
2023/10/21 05:49:43;;;;;;;0.73;0.22;;;;;;;;;;5013449;28;20034;-80
2023/10/21 05:52:10;;;;;;;1.27;0.20;;;;;;;;;;5013198;28;20128;-81
2023/10/21 05:54:37;;;;;;;0.88;0.10;;;;;;;;;;5013084;28;20069;-81
2023/10/21 05:57:05;;;;;;;0.85;0.20;;;;;;;;;;5014555;28;20558;-81
2023/10/21 05:59:32;;;;;;;0.40;0.30;;;;;;;;;;5013811;28;20108;-79
2023/10/21 06:02:01;;;;;;;1.77;0.15;;;;;;;;;;5015005;28;20052;-82
2023/10/21 06:04:28;;;;;;;1.98;0.15;;;;;;;;;;5013335;28;20096;-81
2023/10/21 06:06:55;;;;;;;0.80;0.10;;;;;;;;;;5015041;28;20046;-80
2023/10/21 06:09:23;;;;;;;1.05;0.15;;;;;;;;;;5013528;28;20497;-80
2023/10/21 06:11:51;;;;;;;7.03;0.50;;;;;;;;;;5013008;28;20104;-81
2023/10/21 06:14:19;;;;;;;0.10;0.10;;;;;;;;;;5013508;28;20081;-82
2023/10/21 06:16:46;;;;;;;1.20;0.30;;;;;;;;;;5013539;28;20046;-82
2023/10/21 06:19:13;;;;;;;1.15;0.30;;;;;;;;;;5013125;28;20081;-81
2023/10/21 06:21:41;;;;;;;0.20;0.20;;;;;;;;;;5013178;28;20485;-81
2023/10/21 06:24:08;;;;;;;0.20;0.20;;;;;;;;;;5013151;28;20045;-80
2023/10/21 06:26:36;;;;;;;1.20;0.20;;;;;;;;;;5013485;28;20101;-81
2023/10/21 06:29:03;;;;;;;0.10;0.10;;;;;;;;;;5013572;28;20068;-80
2023/10/21 06:31:31;;;;;;;0.30;0.13;;;;;;;;;;5013206;28;20049;-79
2023/10/21 06:33:59;;;;;;;0.45;0.17;;;;;;;;;;5014593;28;20061;-80
2023/10/21 06:36:27;;;;;;;0.47;0.10;;;;;;;;;;5014373;28;20132;-81
2023/10/21 06:38:55;;;;;;;0.35;0.20;;;;;;;;;;5014959;28;20092;-81
2023/10/21 06:41:23;;;;;;;0.10;0.10;;;;;;;;;;5014540;28;20052;-81
2023/10/21 06:43:51;;;;;;;2.20;0.17;;;;;;;;;;5014579;28;20045;-80
2023/10/21 06:46:19;;;;;;;0.10;0.10;;;;;;;;;;5013063;28;20046;-81
2023/10/21 06:48:46;;;;;;;2.47;0.20;;;;;;;;;;5012979;28;20049;-81
2023/10/21 06:51:14;;;;;;;0.10;0.10;;;;;;;;;;5012804;28;20058;-81
2023/10/21 06:53:41;;;;;;;0.25;0.22;;;;;;;;;;5012980;28;20103;-81
2023/10/21 06:56:12;;;;;;;1.27;0.52;;;;;;;;;;5014234;28;20053;-80
2023/10/21 06:58:40;;;;;;;1.02;0.20;;;;;;;;;;5014172;28;20049;-81
2023/10/21 07:01:08;;;;;;;0.25;0.15;;;;;;;;;;5013010;28;20050;-81
2023/10/21 07:03:35;;;;;;;0.10;0.10;;;;;;;;;;5014224;28;20046;-80
2023/10/21 07:06:03;;;;;;;0.25;0.20;;;;;;;;;;5014000;28;20042;-81
2023/10/21 07:08:31;;;;;;;1.35;0.60;;;;;;;;;;5013536;28;20524;-81
2023/10/21 07:10:58;;;;;;;0.20;0.17;;;;;;;;;;5014540;28;20057;-81
2023/10/21 07:13:25;;;;;;;2.28;0.20;;;;;;;;;;5013219;28;20050;-80
2023/10/21 07:15:53;;;;;;;1.95;0.30;;;;;;;;;;5012818;28;20054;-82
2023/10/21 07:18:20;;;;;;;0.45;0.20;;;;;;;;;;5014210;28;20057;-81
2023/10/21 07:20:47;;;;;;;2.08;0.10;;;;;;;;;;5013246;28;20248;-81
2023/10/21 07:23:15;;;;;;;0.38;0.20;;;;;;;;;;5013280;28;20050;-81
2023/10/21 07:25:42;;;;;;;0.50;0.20;;;;;;;;;;5013237;28;20092;-81
2023/10/21 07:28:10;;;;;;;2.17;0.20;;;;;;;;;;5015179;28;20049;-81
2023/10/21 07:30:37;;;;;;;0.45;0.10;;;;;;;;;;5013382;28;20468;-80
2023/10/21 07:33:05;;;;;;;1.33;0.20;;;;;;;;;;5014812;28;20424;-81
2023/10/21 07:35:33;;;;;;;0.40;0.20;;;;;;;;;;5013323;28;20521;-81
2023/10/21 07:38:00;;;;;;;0.60;0.28;;;;;;;;;;5012863;28;20072;-81
2023/10/21 07:40:29;;;;;;;1.05;0.20;;;;;;;;;;5014238;28;20078;-80
2023/10/21 07:42:58;;;;;;;0.15;0.10;;;;;;;;;;5014264;28;20053;-81
2023/10/21 07:45:25;;;;;;;0.40;0.13;;;;;;;;;;5014388;28;20100;-81
2023/10/21 07:47:53;;;;;;;0.10;0.10;;;;;;;;;;5013132;28;20085;-80
2023/10/21 07:50:20;;;;;;;0.10;0.10;;;;;;;;;;5014569;28;20056;-81
2023/10/21 07:52:47;;;;;;;0.85;0.28;;;;;;;;;;5015066;28;20061;-81
2023/10/21 07:55:15;;;;;;;2.17;0.32;;;;;;;;;;5014986;28;20060;-80
2023/10/21 07:57:42;;;;;;;0.20;0.20;;;;;;;;;;5013327;28;20050;-81
2023/10/21 08:00:13;;;;;;;1.80;0.52;;;;;;;;;;5015315;28;20100;-81
2023/10/21 08:02:42;;;;;;;0.45;0.20;;;;;;;;;;5016283;28;20053;-81
2023/10/21 08:05:10;;;;;;;0.15;0.10;;;;;;;;;;5015629;28;20081;-81
2023/10/21 08:07:37;;;;;;;1.55;0.20;;;;;;;;;;5014981;28;20417;-83
2023/10/21 08:10:05;;;;;;;0.20;0.20;;;;;;;;;;5012666;28;20049;-82
2023/10/21 08:12:32;;;;;;;1.88;0.20;;;;;;;;;;5051107;23;20053;-79
2023/10/21 08:15:09;;;;;;;0.35;0.20;;;;;;;;;;5032390;28;20064;-78
2023/10/21 08:17:37;;;;;;;0.10;0.10;;;;;;;;;;5033262;28;20045;-80
2023/10/21 08:20:04;;;;;;;1.52;0.20;;;;;;;;;;5036718;28;20514;-79
2023/10/21 08:22:32;;;;;;;0.70;0.10;;;;;;;;;;5035155;28;20111;-79
2023/10/21 08:25:00;;;;;;;0.20;0.20;;;;;;;;;;5034860;28;20049;-80
2023/10/21 08:27:27;;;;;;;0.30;0.30;;;;;;;;;;5036288;28;20067;-79
2023/10/21 08:29:58;;;;;;;0.50;0.10;;;;;;;;;;5034959;28;20049;-81
2023/10/21 08:32:26;;;;;;;0.80;0.10;;;;;;;;;;5038405;28;20133;-81
2023/10/21 08:34:53;;;;;;;1.35;0.20;;;;;;;;;;5035993;28;20073;-81
2023/10/21 08:37:20;;;;;;;0.45;0.20;;;;;;;;;;5034267;28;20049;-80
2023/10/21 08:39:50;;;;;;;0.25;0.10;;;;;;;;;;5035477;28;20054;-79
2023/10/21 08:42:18;;;;;;;0.25;0.10;;;;;;;;;;5035248;28;20049;-80
2023/10/21 08:44:46;;;;;;;0.73;0.10;;;;;;;;;;5034100;28;20123;-81
2023/10/21 08:47:14;;;;;;;1.38;0.15;;;;;;;;;;5035716;28;20099;-80
2023/10/21 08:49:47;;;;;;;0.43;0.10;;;;;;;;;;5033933;28;20053;-79
2023/10/21 08:52:15;;;;;;;4.68;0.30;;;;;;;;;;5034063;28;20049;-81
2023/10/21 08:54:43;;;;;;;1.35;0.20;;;;;;;;;;5034954;28;20072;-81
2023/10/21 08:57:10;;;;;;;1.17;0.13;;;;;;;;;;5033747;28;20127;-80
2023/10/21 08:59:38;;;;;;;0.38;0.10;;;;;;;;;;5034767;28;20052;-82
2023/10/21 09:02:05;;;;;;;0.10;0.10;;;;;;;;;;5033306;28;20050;-79
2023/10/21 09:04:33;;;;;;;0.75;0.20;;;;;;;;;;5033325;28;20530;-79
2023/10/21 09:07:01;;;;;;;0.98;0.22;;;;;;;;;;5034736;28;20052;-79
2023/10/21 09:09:29;;;;;;;0.95;0.10;;;;;;;;;;5033708;28;20045;-80
2023/10/21 09:12:04;;;;;;;1.55;0.20;;;;;;;;;;5034373;28;20566;-79
2023/10/21 09:14:31;;;;;;;0.13;0.00;;;;;;;;;;5034354;28;20068;-80
2023/10/21 09:16:59;;;;;;;0.40;0.32;;;;;;;;;;5033377;28;20049;-79
2023/10/21 09:19:29;;;;;;;0.10;0.10;;;;;;;;;;5034674;28;20045;-82
2023/10/21 09:21:56;;;;;;;0.15;0.10;;;;;;;;;;5034366;28;20041;-80
2023/10/21 09:24:24;;;;;;;0.28;0.20;;;;;;;;;;5034306;28;20049;-79
2023/10/21 09:26:51;;;;;;;0.40;0.20;;;;;;;;;;5032957;28;20547;-79
2023/10/21 09:29:20;;;;;;;0.88;0.40;;;;;;;;;;5037855;28;20121;-81
2023/10/21 09:31:54;;;;;;;0.30;0.30;;;;;;;;;;5041414;28;20484;-81
2023/10/21 09:34:25;;;;;;;2.17;0.20;;;;;;;;;;5041116;28;20054;-81
2023/10/21 09:36:53;;;;;;;0.47;0.10;;;;;;;;;;5043300;28;20053;-80
2023/10/21 09:39:21;;;;;;;0.57;0.10;;;;;;;;;;5041539;28;20049;-81
2023/10/21 09:41:48;;;;;;;0.65;0.20;;;;;;;;;;5041422;28;20068;-81
2023/10/21 09:44:16;;;;;;;0.20;0.10;;;;;;;;;;5040954;28;20049;-82
2023/10/21 09:46:47;;;;;;;2.58;0.13;;;;;;;;;;5041357;28;20053;-81
2023/10/21 09:49:15;;;;;;;2.33;0.30;;;;;;;;;;5038923;28;20563;-82
2023/10/21 09:51:49;;;;;;;1.52;0.20;;;;;;;;;;5038528;28;20053;-85
2023/10/21 09:54:20;;;;;;;0.20;0.10;;;;;;;;;;5038269;28;20054;-80
2023/10/21 09:56:51;;;;;;;2.17;0.73;;;;;;;;;;5039381;28;20050;-80
2023/10/21 09:59:19;;;;;;;5.95;0.30;;;;;;;;;;5038274;28;20041;-80
2023/10/21 10:01:47;;;;;;;0.10;0.10;;;;;;;;;;5036787;28;20491;-80
2023/10/21 10:04:14;;;;;;;0.47;0.10;;;;;;;;;;5038519;28;20048;-81
2023/10/21 10:06:43;;;;;;;0.00;0.00;;;;;;;;;;5039734;28;20052;-81
2023/10/21 10:09:12;;;;;;;0.70;0.70;;;;;;;;;;5038263;28;20099;-80
2023/10/21 10:11:40;;;;;;;47.33;5.32;;;;;;;;;;5036420;28;20076;-82
2023/10/21 10:14:07;;;;;;;9.55;0.77;;;;;;;;;;5037756;28;20323;-81
2023/10/21 10:16:42;;;;;;;2.38;0.47;;;;;;;;;;5038579;28;20099;-80
2023/10/21 10:19:09;;;;;;;2.40;0.50;;;;;;;;;;5038660;28;20128;-80
2023/10/21 10:21:37;;;;;;;1.58;0.50;;;;;;;;;;5038226;28;20049;-81
2023/10/21 10:24:04;;;;;;;3.92;0.40;;;;;;;;;;5037821;28;20063;-80
2023/10/21 10:26:33;;;;;;;0.10;0.10;;;;;;;;;;5035997;28;20092;-79
2023/10/21 10:29:17;;;;;;;0.10;0.10;;;;;;;;;;5037502;28;20057;-80
2023/10/21 10:31:45;;;;;;;0.55;0.20;;;;;;;;;;5038049;28;20087;-80
2023/10/21 10:34:17;;;;;;;0.65;0.20;;;;;;;;;;5036383;28;20571;-81
2023/10/21 10:36:45;;;;;;;0.20;0.17;;;;;;;;;;5036420;28;20512;-81
2023/10/21 10:39:30;;;;;;;0.55;0.10;;;;;;;;;;5036556;28;20095;-80
2023/10/21 10:41:58;;;;;;;0.22;0.20;;;;;;;;;;5035464;28;20041;-80
2023/10/21 10:44:27;;;;;;;3.45;0.40;;;;;;;;;;5038992;28;20048;-81
2023/10/21 10:46:55;;;;;;;0.47;0.20;;;;;;;;;;5038426;28;20099;-81
2023/10/21 10:49:22;;;;;;;2.05;0.20;;;;;;;;;;5037473;28;20061;-80
2023/10/21 10:51:50;;;;;;;1.85;0.30;;;;;;;;;;5038413;28;20492;-80
2023/10/21 10:54:18;;;;;;;1.23;0.10;;;;;;;;;;5039294;28;20405;-81
2023/10/21 10:56:49;;;;;;;0.63;0.40;;;;;;;;;;5035776;28;20053;-80
2023/10/21 10:59:17;;;;;;;0.30;0.20;;;;;;;;;;5038930;28;20042;-80
2023/10/21 11:01:56;;;;;;;0.47;0.20;;;;;;;;;;5038665;28;20050;-81
2023/10/21 11:04:23;;;;;;;0.30;0.20;;;;;;;;;;5038526;28;20099;-82
2023/10/21 11:06:52;;;;;;;0.00;0.00;;;;;;;;;;5034727;28;20057;-79
2023/10/21 11:09:30;;;;;;;0.10;0.10;;;;;;;;;;5036161;28;20045;-81
2023/10/21 11:11:58;;;;;;;0.08;0.08;;;;;;;;;;5034759;28;20075;-80
2023/10/21 11:14:36;;;;;;;0.10;0.10;;;;;;;;;;5036441;28;20073;-80
2023/10/21 11:17:07;;;;;;;0.30;0.20;;;;;;;;;;5035815;28;20056;-79
2023/10/21 11:19:34;;;;;;;0.28;0.20;;;;;;;;;;5041495;28;20057;-79
2023/10/21 11:22:07;;;;;;;0.45;0.10;;;;;;;;;;5048323;28;20486;-79
2023/10/21 11:24:35;;;;;;;0.30;0.15;;;;;;;;;;5041472;28;20045;-82
2023/10/21 11:27:05;;;;;;;3.22;0.20;;;;;;;;;;5038632;28;20397;-81
2023/10/21 11:29:33;;;;;;;0.30;0.10;;;;;;;;;;5040075;28;20072;-81
2023/10/21 11:32:01;;;;;;;0.13;0.13;;;;;;;;;;5038244;28;20068;-81
2023/10/21 11:34:29;;;;;;;1.27;0.10;;;;;;;;;;5038916;28;20060;-80
2023/10/21 11:36:57;;;;;;;0.10;0.10;;;;;;;;;;5037327;28;20053;-80
2023/10/21 11:39:25;;;;;;;0.20;0.17;;;;;;;;;;5039644;28;20067;-80
2023/10/21 11:41:53;;;;;;;1.08;0.10;;;;;;;;;;5038220;28;20113;-81
2023/10/21 11:44:27;;;;;;;1.20;0.13;;;;;;;;;;5037302;28;20046;-80
2023/10/21 11:47:04;;;;;;;1.95;0.20;;;;;;;;;;5038338;28;20045;-79
2023/10/21 11:49:34;;;;;;;2.90;0.25;;;;;;;;;;5038180;28;20049;-80
2023/10/21 11:52:02;;;;;;;0.03;0.03;;;;;;;;;;5035887;28;20050;-80
2023/10/21 12:10:44;;;;;;;0.22;0.22;;;;;;;;;;5040313;28;20049;-80
2023/10/21 12:21:43;;;;;;;0.25;0.10;;;;;;;;;;5039474;28;20124;-80
2023/10/21 12:40:36;;;;;;;0.50;0.17;;;;;;;;;;5038337;28;20042;-81
2023/10/21 12:45:47;;;;;;;0.30;0.15;;;;;;;;;;5037555;28;20053;-80
2023/10/21 12:48:17;;;;;;;0.00;0.00;;;;;;;;;;5036564;28;20131;-80
2023/10/21 12:50:49;;;;;;;0.98;0.10;;;;;;;;;;5036276;28;20045;-80
2023/10/21 12:53:20;;;;;;;0.90;0.28;;;;;;;;;;5036072;28;20053;-80
2023/10/21 12:55:48;;;;;;;2.00;0.10;;;;;;;;;;5036703;28;20108;-80
2023/10/21 12:58:15;;;;;;;1.70;0.10;;;;;;;;;;5036026;28;20057;-80
2023/10/21 13:00:44;;;;;;;0.57;0.10;;;;;;;;;;5036896;28;20045;-81
2023/10/21 13:03:12;;;;;;;0.30;0.10;;;;;;;;;;5044343;28;20049;-80
2023/10/21 13:05:40;;;;;;;0.30;0.10;;;;;;;;;;5042403;28;20041;-80
2023/10/21 13:08:09;;;;;;;1.00;0.10;;;;;;;;;;5042652;28;20046;-81
2023/10/21 13:10:36;;;;;;;0.40;0.20;;;;;;;;;;5042709;28;20053;-80
2023/10/21 13:13:05;;;;;;;0.88;0.13;;;;;;;;;;5042479;28;20049;-81
2023/10/21 13:15:32;;;;;;;3.15;0.30;;;;;;;;;;5041790;28;20447;-81
2023/10/21 13:18:03;;;;;;;0.50;0.20;;;;;;;;;;5042640;28;20049;-81
2023/10/21 13:20:31;;;;;;;2.47;0.40;;;;;;;;;;5037754;28;20504;-81
2023/10/21 13:22:58;;;;;;;4.15;0.45;;;;;;;;;;5038935;28;20045;-81
2023/10/21 13:25:26;;;;;;;7.80;0.65;;;;;;;;;;5038660;28;20049;-81
2023/10/21 13:27:58;;;;;;;5.10;2.15;;;;;;;;;;5038758;28;20056;-80
2023/10/21 13:30:26;;;;;;;0.63;0.32;;;;;;;;;;5039484;28;20050;-81
2023/10/21 13:32:54;;;;;;;2.05;0.32;;;;;;;;;;5040546;28;20053;-80
2023/10/21 13:35:22;;;;;;;0.40;0.38;;;;;;;;;;5041301;28;20067;-81
2023/10/21 13:37:55;;;;;;;2.28;0.30;;;;;;;;;;5039966;28;20045;-81
2023/10/21 13:40:26;;;;;;;7.60;0.50;;;;;;;;;;5038710;28;20042;-81
2023/10/21 13:42:53;;;;;;;0.75;0.20;;;;;;;;;;5041249;28;20046;-81
2023/10/21 13:45:21;;;;;;;1.83;0.20;;;;;;;;;;5040053;28;20109;-81
2023/10/21 13:47:51;;;;;;;0.50;0.20;;;;;;;;;;5038991;28;20099;-81
2023/10/21 13:50:21;;;;;;;0.35;0.20;;;;;;;;;;5043537;28;20053;-81
2023/10/21 13:52:48;;;;;;;1.00;0.40;;;;;;;;;;5050364;28;20084;-81
2023/10/21 13:55:16;;;;;;;0.28;0.20;;;;;;;;;;5047427;28;20523;-82
2023/10/21 13:57:47;;;;;;;0.30;0.10;;;;;;;;;;5042315;28;20049;-81
2023/10/21 14:00:31;;;;;;;0.30;0.15;;;;;;;;;;5042202;28;20046;-81
2023/10/21 14:02:59;;;;;;;1.00;0.10;;;;;;;;;;5043129;28;20049;-81
2023/10/21 14:05:27;;;;;;;1.90;0.20;;;;;;;;;;5040132;28;20099;-81
2023/10/21 14:07:54;;;;;;;0.40;0.20;;;;;;;;;;5041091;28;20050;-81
2023/10/21 14:10:22;;;;;;;3.35;0.28;;;;;;;;;;5039976;28;20049;-81
2023/10/21 14:12:49;;;;;;;0.63;0.17;;;;;;;;;;5034907;23;20107;-81
2023/10/21 14:15:19;;;;;;;0.40;0.20;;;;;;;;;;5014418;28;20100;-81
2023/10/21 14:17:46;;;;;;;1.27;0.20;;;;;;;;;;5013728;28;20452;-82
2023/10/21 14:20:14;;;;;;;1.52;0.20;;;;;;;;;;5015530;28;20104;-81
2023/10/21 14:22:42;;;;;;;0.43;0.30;;;;;;;;;;4996956;28;20046;-81
2023/10/21 14:25:09;;;;;;;0.15;0.10;;;;;;;;;;4994913;28;20054;-81
2023/10/21 14:27:37;;;;;;;2.00;0.20;;;;;;;;;;4994721;28;20105;-81
2023/10/21 14:30:09;;;;;;;0.55;0.17;;;;;;;;;;4995245;28;20054;-81
2023/10/21 14:32:42;;;;;;;0.90;0.10;;;;;;;;;;4994942;28;20046;-81
2023/10/21 14:35:10;;;;;;;0.20;0.10;;;;;;;;;;4994975;28;20065;-81
2023/10/21 14:37:37;;;;;;;0.95;0.13;;;;;;;;;;4996855;28;20425;-82
2023/10/21 14:40:10;;;;;;;0.32;0.20;;;;;;;;;;4995784;28;20469;-81
2023/10/21 14:42:38;;;;;;;2.50;0.20;;;;;;;;;;4994491;28;20046;-81
2023/10/21 14:45:13;;;;;;;1.20;0.20;;;;;;;;;;4996109;28;20130;-81
2023/10/21 14:47:40;;;;;;;1.17;0.40;;;;;;;;;;4994574;28;20061;-82
2023/10/21 14:50:09;;;;;;;0.47;0.30;;;;;;;;;;4991171;28;20077;-81
2023/10/21 14:52:37;;;;;;;0.30;0.10;;;;;;;;;;4993141;28;20050;-81
2023/10/21 14:55:06;;;;;;;10.05;1.33;;;;;;;;;;4995103;28;20100;-81
2023/10/21 14:57:34;;;;;;;1.20;0.20;;;;;;;;;;4995497;28;20080;-80
2023/10/21 15:00:05;;;;;;;2.33;0.90;;;;;;;;;;4994692;28;20046;-81
2023/10/21 15:02:33;;;;;;;0.77;0.20;;;;;;;;;;4994795;28;20081;-80
2023/10/21 15:05:01;;;;;;;1.48;0.20;;;;;;;;;;4991108;28;20572;-80
2023/10/21 15:07:28;;;;;;;0.20;0.20;;;;;;;;;;4991168;28;20294;-80
2023/10/21 15:09:55;;;;;;;0.52;0.52;;;;;;;;;;4997088;28;20482;-81
2023/10/21 15:12:23;;;;;;;2.20;0.30;;;;;;;;;;4995386;28;20050;-80
2023/10/21 15:14:52;;;;;;;1.25;0.22;;;;;;;;;;4995774;28;20090;-80
2023/10/21 15:17:26;;;;;;;3.45;0.25;;;;;;;;;;4997194;28;20050;-79
2023/10/21 15:19:53;;;;;;;2.53;0.13;;;;;;;;;;4991129;28;20053;-79
2023/10/21 15:22:20;;;;;;;0.43;0.25;;;;;;;;;;5000391;28;20054;-79
2023/10/21 15:24:47;;;;;;;0.55;0.30;;;;;;;;;;4997529;28;20077;-79
2023/10/21 15:27:14;;;;;;;0.75;0.17;;;;;;;;;;5000864;28;20088;-80
2023/10/21 15:29:42;;;;;;;0.75;0.17;;;;;;;;;;4999403;28;20061;-79
2023/10/21 15:32:09;;;;;;;0.15;0.15;;;;;;;;;;4991002;28;20058;-81